sensor_id;sensor_type;location;lat;lon;timestamp;P1;durP1;ratioP1;P2;durP2;ratioP2
19448;SDS011;9863;49.404;8.246;2022-09-09T00:10:13;577.33;;;526.13;;
19448;SDS011;9863;49.404;8.246;2022-09-09T00:21:58;591.65;;;540.10;;
19448;SDS011;9863;49.404;8.246;2022-09-09T00:24:46;589.33;;;537.83;;
19448;SDS011;9863;49.404;8.246;2022-09-09T00:30:18;602.33;;;550.42;;
19448;SDS011;9863;49.404;8.246;2022-09-09T00:32:50;595.92;;;544.38;;
19448;SDS011;9863;49.404;8.246;2022-09-09T00:35:29;602.60;;;550.90;;
19448;SDS011;9863;49.404;8.246;2022-09-09T00:38:02;599.95;;;548.55;;
19448;SDS011;9863;49.404;8.246;2022-09-09T00:40:52;600.72;;;549.47;;
19448;SDS011;9863;49.404;8.246;2022-09-09T00:43:29;604.60;;;552.33;;
19448;SDS011;9863;49.404;8.246;2022-09-09T00:49:13;595.58;;;543.65;;
19448;SDS011;9863;49.404;8.246;2022-09-09T00:57:51;592.20;;;542.38;;
19448;SDS011;9863;49.404;8.246;2022-09-09T01:03:02;623.67;;;570.28;;
19448;SDS011;9863;49.404;8.246;2022-09-09T01:05:55;601.70;;;549.55;;
19448;SDS011;9863;49.404;8.246;2022-09-09T01:11:49;585.63;;;534.47;;
19448;SDS011;9863;49.404;8.246;2022-09-09T01:17:14;602.13;;;550.97;;
19448;SDS011;9863;49.404;8.246;2022-09-09T01:20:15;593.17;;;541.75;;
19448;SDS011;9863;49.404;8.246;2022-09-09T01:28:22;626.55;;;570.05;;
19448;SDS011;9863;49.404;8.246;2022-09-09T01:31:01;609.00;;;556.97;;
19448;SDS011;9863;49.404;8.246;2022-09-09T01:33:38;589.50;;;537.72;;
19448;SDS011;9863;49.404;8.246;2022-09-09T01:39:02;600.25;;;549.00;;
19448;SDS011;9863;49.404;8.246;2022-09-09T01:41:31;600.53;;;549.25;;
19448;SDS011;9863;49.404;8.246;2022-09-09T01:44:03;588.10;;;536.88;;
19448;SDS011;9863;49.404;8.246;2022-09-09T01:46:34;594.53;;;542.80;;
19448;SDS011;9863;49.404;8.246;2022-09-09T01:49:04;592.28;;;540.90;;
19448;SDS011;9863;49.404;8.246;2022-09-09T01:51:34;601.75;;;550.03;;
19448;SDS011;9863;49.404;8.246;2022-09-09T01:54:07;583.45;;;533.55;;
19448;SDS011;9863;49.404;8.246;2022-09-09T02:03:02;592.13;;;540.08;;
19448;SDS011;9863;49.404;8.246;2022-09-09T02:11:20;592.17;;;539.85;;
19448;SDS011;9863;49.404;8.246;2022-09-09T02:14:01;586.70;;;535.33;;
19448;SDS011;9863;49.404;8.246;2022-09-09T02:19:39;586.15;;;534.63;;
19448;SDS011;9863;49.404;8.246;2022-09-09T02:22:39;607.63;;;555.15;;
19448;SDS011;9863;49.404;8.246;2022-09-09T02:25:14;604.05;;;552.55;;
19448;SDS011;9863;49.404;8.246;2022-09-09T02:27:47;601.33;;;547.85;;
19448;SDS011;9863;49.404;8.246;2022-09-09T02:30:18;632.67;;;578.75;;
19448;SDS011;9863;49.404;8.246;2022-09-09T02:32:54;607.85;;;555.50;;
19448;SDS011;9863;49.404;8.246;2022-09-09T02:35:39;593.97;;;542.55;;
19448;SDS011;9863;49.404;8.246;2022-09-09T02:38:10;612.05;;;558.58;;
19448;SDS011;9863;49.404;8.246;2022-09-09T02:40:48;616.25;;;563.58;;
19448;SDS011;9863;49.404;8.246;2022-09-09T02:43:18;612.22;;;559.63;;
19448;SDS011;9863;49.404;8.246;2022-09-09T02:46:31;600.47;;;548.78;;
19448;SDS011;9863;49.404;8.246;2022-09-09T02:49:04;573.88;;;522.80;;
19448;SDS011;9863;49.404;8.246;2022-09-09T02:54:29;615.58;;;562.88;;
19448;SDS011;9863;49.404;8.246;2022-09-09T02:57:12;609.22;;;556.78;;
19448;SDS011;9863;49.404;8.246;2022-09-09T02:59:55;594.83;;;543.22;;
19448;SDS011;9863;49.404;8.246;2022-09-09T03:02:25;574.17;;;523.00;;
19448;SDS011;9863;49.404;8.246;2022-09-09T03:05:00;604.30;;;551.67;;
19448;SDS011;9863;49.404;8.246;2022-09-09T03:07:28;608.88;;;557.05;;
19448;SDS011;9863;49.404;8.246;2022-09-09T03:09:56;621.90;;;568.00;;
19448;SDS011;9863;49.404;8.246;2022-09-09T03:12:27;610.40;;;558.75;;
19448;SDS011;9863;49.404;8.246;2022-09-09T03:14:54;613.20;;;561.05;;
19448;SDS011;9863;49.404;8.246;2022-09-09T03:17:23;610.50;;;558.97;;
19448;SDS011;9863;49.404;8.246;2022-09-09T03:19:54;597.50;;;545.25;;
19448;SDS011;9863;49.404;8.246;2022-09-09T03:22:22;597.85;;;545.90;;
19448;SDS011;9863;49.404;8.246;2022-09-09T03:24:50;596.30;;;544.10;;
19448;SDS011;9863;49.404;8.246;2022-09-09T03:27:19;597.05;;;545.50;;
19448;SDS011;9863;49.404;8.246;2022-09-09T03:29:47;611.58;;;559.33;;
19448;SDS011;9863;49.404;8.246;2022-09-09T03:32:21;594.97;;;543.08;;
19448;SDS011;9863;49.404;8.246;2022-09-09T03:34:56;595.25;;;543.50;;
19448;SDS011;9863;49.404;8.246;2022-09-09T03:37:24;600.38;;;547.88;;
19448;SDS011;9863;49.404;8.246;2022-09-09T03:39:52;582.90;;;532.47;;
19448;SDS011;9863;49.404;8.246;2022-09-09T03:42:22;592.08;;;539.60;;
19448;SDS011;9863;49.404;8.246;2022-09-09T03:44:53;594.55;;;542.28;;
19448;SDS011;9863;49.404;8.246;2022-09-09T03:47:24;590.90;;;539.80;;
19448;SDS011;9863;49.404;8.246;2022-09-09T03:49:57;590.45;;;538.25;;
19448;SDS011;9863;49.404;8.246;2022-09-09T03:52:24;598.05;;;545.83;;
19448;SDS011;9863;49.404;8.246;2022-09-09T03:54:53;568.92;;;518.25;;
19448;SDS011;9863;49.404;8.246;2022-09-09T03:57:22;587.75;;;535.35;;
19448;SDS011;9863;49.404;8.246;2022-09-09T03:59:50;580.17;;;528.55;;
19448;SDS011;9863;49.404;8.246;2022-09-09T04:02:18;594.05;;;539.95;;
19448;SDS011;9863;49.404;8.246;2022-09-09T04:04:46;569.25;;;517.03;;
19448;SDS011;9863;49.404;8.246;2022-09-09T04:07:15;579.63;;;527.72;;
19448;SDS011;9863;49.404;8.246;2022-09-09T04:09:44;581.30;;;529.00;;
19448;SDS011;9863;49.404;8.246;2022-09-09T04:12:13;593.00;;;539.88;;
19448;SDS011;9863;49.404;8.246;2022-09-09T04:14:41;580.35;;;528.08;;
19448;SDS011;9863;49.404;8.246;2022-09-09T04:17:10;584.35;;;532.60;;
19448;SDS011;9863;49.404;8.246;2022-09-09T04:19:38;581.38;;;529.88;;
19448;SDS011;9863;49.404;8.246;2022-09-09T04:22:06;581.50;;;528.75;;
19448;SDS011;9863;49.404;8.246;2022-09-09T04:24:34;580.30;;;528.50;;
19448;SDS011;9863;49.404;8.246;2022-09-09T04:27:02;586.83;;;534.70;;
19448;SDS011;9863;49.404;8.246;2022-09-09T04:29:33;607.53;;;554.60;;
19448;SDS011;9863;49.404;8.246;2022-09-09T04:32:01;588.60;;;536.08;;
19448;SDS011;9863;49.404;8.246;2022-09-09T04:34:29;591.83;;;539.72;;
19448;SDS011;9863;49.404;8.246;2022-09-09T04:36:58;604.22;;;551.00;;
19448;SDS011;9863;49.404;8.246;2022-09-09T04:39:28;578.97;;;527.30;;
19448;SDS011;9863;49.404;8.246;2022-09-09T04:41:57;586.33;;;533.88;;
19448;SDS011;9863;49.404;8.246;2022-09-09T04:44:25;589.03;;;535.75;;
19448;SDS011;9863;49.404;8.246;2022-09-09T04:46:54;585.15;;;533.47;;
19448;SDS011;9863;49.404;8.246;2022-09-09T04:49:23;584.17;;;531.50;;
19448;SDS011;9863;49.404;8.246;2022-09-09T04:51:51;605.67;;;551.45;;
19448;SDS011;9863;49.404;8.246;2022-09-09T04:54:19;609.65;;;556.38;;
19448;SDS011;9863;49.404;8.246;2022-09-09T04:56:47;584.67;;;532.55;;
19448;SDS011;9863;49.404;8.246;2022-09-09T04:59:18;584.38;;;531.70;;
19448;SDS011;9863;49.404;8.246;2022-09-09T05:01:50;594.15;;;541.25;;
19448;SDS011;9863;49.404;8.246;2022-09-09T05:04:18;592.22;;;539.33;;
19448;SDS011;9863;49.404;8.246;2022-09-09T05:06:46;605.13;;;551.85;;
19448;SDS011;9863;49.404;8.246;2022-09-09T05:09:14;588.15;;;535.88;;
19448;SDS011;9863;49.404;8.246;2022-09-09T05:11:44;584.70;;;532.08;;
19448;SDS011;9863;49.404;8.246;2022-09-09T05:14:25;585.13;;;533.38;;
19448;SDS011;9863;49.404;8.246;2022-09-09T05:16:54;589.80;;;537.13;;
19448;SDS011;9863;49.404;8.246;2022-09-09T05:19:23;594.97;;;541.15;;
19448;SDS011;9863;49.404;8.246;2022-09-09T05:21:53;580.88;;;528.58;;
19448;SDS011;9863;49.404;8.246;2022-09-09T05:24:27;581.58;;;529.67;;
19448;SDS011;9863;49.404;8.246;2022-09-09T05:26:57;590.30;;;537.13;;
19448;SDS011;9863;49.404;8.246;2022-09-09T05:29:28;585.40;;;533.80;;
19448;SDS011;9863;49.404;8.246;2022-09-09T05:31:56;598.83;;;545.90;;
19448;SDS011;9863;49.404;8.246;2022-09-09T05:34:24;581.47;;;529.10;;
19448;SDS011;9863;49.404;8.246;2022-09-09T05:36:53;579.33;;;527.55;;
19448;SDS011;9863;49.404;8.246;2022-09-09T05:39:22;580.92;;;529.03;;
19448;SDS011;9863;49.404;8.246;2022-09-09T05:41:51;586.95;;;535.35;;
19448;SDS011;9863;49.404;8.246;2022-09-09T05:44:19;601.88;;;548.92;;
19448;SDS011;9863;49.404;8.246;2022-09-09T05:46:47;583.15;;;532.15;;
19448;SDS011;9863;49.404;8.246;2022-09-09T05:49:16;578.33;;;527.05;;
19448;SDS011;9863;49.404;8.246;2022-09-09T05:51:44;578.45;;;526.75;;
19448;SDS011;9863;49.404;8.246;2022-09-09T05:54:14;581.72;;;530.20;;
19448;SDS011;9863;49.404;8.246;2022-09-09T05:56:46;582.75;;;530.95;;
19448;SDS011;9863;49.404;8.246;2022-09-09T05:59:18;581.63;;;530.00;;
19448;SDS011;9863;49.404;8.246;2022-09-09T06:01:47;584.10;;;532.70;;
19448;SDS011;9863;49.404;8.246;2022-09-09T06:04:30;584.75;;;531.88;;
19448;SDS011;9863;49.404;8.246;2022-09-09T06:07:00;586.92;;;534.35;;
19448;SDS011;9863;49.404;8.246;2022-09-09T06:09:29;589.03;;;536.97;;
19448;SDS011;9863;49.404;8.246;2022-09-09T06:11:57;594.55;;;541.92;;
19448;SDS011;9863;49.404;8.246;2022-09-09T06:14:26;595.65;;;543.45;;
19448;SDS011;9863;49.404;8.246;2022-09-09T06:16:57;587.58;;;535.67;;
19448;SDS011;9863;49.404;8.246;2022-09-09T06:19:28;594.65;;;542.35;;
19448;SDS011;9863;49.404;8.246;2022-09-09T06:21:58;574.38;;;523.47;;
19448;SDS011;9863;49.404;8.246;2022-09-09T06:24:29;595.75;;;543.75;;
19448;SDS011;9863;49.404;8.246;2022-09-09T06:26:58;598.75;;;546.17;;
19448;SDS011;9863;49.404;8.246;2022-09-09T06:29:32;589.22;;;537.65;;
19448;SDS011;9863;49.404;8.246;2022-09-09T06:32:01;583.17;;;531.72;;
19448;SDS011;9863;49.404;8.246;2022-09-09T06:34:30;595.05;;;542.60;;
19448;SDS011;9863;49.404;8.246;2022-09-09T06:36:59;591.40;;;539.45;;
19448;SDS011;9863;49.404;8.246;2022-09-09T06:39:34;601.38;;;549.08;;
19448;SDS011;9863;49.404;8.246;2022-09-09T06:42:03;589.33;;;538.95;;
19448;SDS011;9863;49.404;8.246;2022-09-09T06:44:49;604.42;;;551.15;;
19448;SDS011;9863;49.404;8.246;2022-09-09T06:47:24;592.40;;;540.92;;
19448;SDS011;9863;49.404;8.246;2022-09-09T06:49:52;616.55;;;561.78;;
19448;SDS011;9863;49.404;8.246;2022-09-09T06:52:20;616.15;;;562.90;;
19448;SDS011;9863;49.404;8.246;2022-09-09T06:54:49;600.90;;;549.58;;
19448;SDS011;9863;49.404;8.246;2022-09-09T06:57:17;610.55;;;558.33;;
19448;SDS011;9863;49.404;8.246;2022-09-09T07:00:11;619.45;;;564.10;;
19448;SDS011;9863;49.404;8.246;2022-09-09T07:02:41;609.40;;;557.53;;
19448;SDS011;9863;49.404;8.246;2022-09-09T07:05:10;655.92;;;599.30;;
19448;SDS011;9863;49.404;8.246;2022-09-09T07:07:40;623.53;;;571.70;;
19448;SDS011;9863;49.404;8.246;2022-09-09T07:10:11;636.88;;;583.80;;
19448;SDS011;9863;49.404;8.246;2022-09-09T07:12:39;657.38;;;602.45;;
19448;SDS011;9863;49.404;8.246;2022-09-09T07:15:09;647.10;;;594.05;;
19448;SDS011;9863;49.404;8.246;2022-09-09T07:17:41;658.30;;;603.75;;
19448;SDS011;9863;49.404;8.246;2022-09-09T07:20:09;650.13;;;596.80;;
19448;SDS011;9863;49.404;8.246;2022-09-09T07:22:38;659.97;;;606.67;;
19448;SDS011;9863;49.404;8.246;2022-09-09T07:25:07;667.10;;;614.08;;
19448;SDS011;9863;49.404;8.246;2022-09-09T07:27:36;665.00;;;611.05;;
19448;SDS011;9863;49.404;8.246;2022-09-09T07:30:05;673.25;;;619.75;;
19448;SDS011;9863;49.404;8.246;2022-09-09T07:32:34;676.60;;;623.92;;
19448;SDS011;9863;49.404;8.246;2022-09-09T07:35:02;684.85;;;630.72;;
19448;SDS011;9863;49.404;8.246;2022-09-09T07:37:31;692.55;;;637.60;;
19448;SDS011;9863;49.404;8.246;2022-09-09T07:39:59;691.40;;;636.67;;
19448;SDS011;9863;49.404;8.246;2022-09-09T07:42:30;700.63;;;645.70;;
19448;SDS011;9863;49.404;8.246;2022-09-09T07:44:58;716.42;;;659.97;;
19448;SDS011;9863;49.404;8.246;2022-09-09T07:47:26;727.75;;;671.38;;
19448;SDS011;9863;49.404;8.246;2022-09-09T07:49:56;713.08;;;657.83;;
19448;SDS011;9863;49.404;8.246;2022-09-09T07:52:30;701.20;;;647.50;;
19448;SDS011;9863;49.404;8.246;2022-09-09T07:55:02;725.25;;;668.70;;
19448;SDS011;9863;49.404;8.246;2022-09-09T07:57:32;711.75;;;658.75;;
19448;SDS011;9863;49.404;8.246;2022-09-09T08:00:00;726.30;;;670.92;;
19448;SDS011;9863;49.404;8.246;2022-09-09T08:02:38;725.13;;;669.28;;
19448;SDS011;9863;49.404;8.246;2022-09-09T08:05:07;741.17;;;683.80;;
19448;SDS011;9863;49.404;8.246;2022-09-09T08:07:38;731.70;;;675.40;;
19448;SDS011;9863;49.404;8.246;2022-09-09T08:10:06;738.67;;;682.08;;
19448;SDS011;9863;49.404;8.246;2022-09-09T08:12:36;738.25;;;681.25;;
19448;SDS011;9863;49.404;8.246;2022-09-09T08:15:11;728.75;;;673.28;;
19448;SDS011;9863;49.404;8.246;2022-09-09T08:17:40;733.45;;;677.80;;
19448;SDS011;9863;49.404;8.246;2022-09-09T08:20:08;748.55;;;691.28;;
19448;SDS011;9863;49.404;8.246;2022-09-09T08:22:38;738.75;;;683.05;;
19448;SDS011;9863;49.404;8.246;2022-09-09T08:25:06;733.72;;;679.38;;
19448;SDS011;9863;49.404;8.246;2022-09-09T08:27:37;745.40;;;689.17;;
19448;SDS011;9863;49.404;8.246;2022-09-09T08:30:06;755.22;;;698.58;;
19448;SDS011;9863;49.404;8.246;2022-09-09T08:32:35;758.85;;;702.30;;
19448;SDS011;9863;49.404;8.246;2022-09-09T08:35:05;758.22;;;701.42;;
19448;SDS011;9863;49.404;8.246;2022-09-09T08:37:34;760.33;;;705.53;;
19448;SDS011;9863;49.404;8.246;2022-09-09T08:40:03;764.90;;;709.45;;
19448;SDS011;9863;49.404;8.246;2022-09-09T08:42:38;771.85;;;715.17;;
19448;SDS011;9863;49.404;8.246;2022-09-09T08:45:23;769.55;;;713.35;;
19448;SDS011;9863;49.404;8.246;2022-09-09T08:50:44;775.65;;;719.35;;
19448;SDS011;9863;49.404;8.246;2022-09-09T08:53:24;782.78;;;726.35;;
19448;SDS011;9863;49.404;8.246;2022-09-09T08:56:01;790.88;;;734.03;;
19448;SDS011;9863;49.404;8.246;2022-09-09T08:58:50;789.53;;;733.40;;
19448;SDS011;9863;49.404;8.246;2022-09-09T09:16:14;804.33;;;747.67;;
19448;SDS011;9863;49.404;8.246;2022-09-09T09:18:53;803.95;;;748.20;;
19448;SDS011;9863;49.404;8.246;2022-09-09T09:30:15;810.03;;;753.20;;
19448;SDS011;9863;49.404;8.246;2022-09-09T09:33:03;808.53;;;752.08;;
19448;SDS011;9863;49.404;8.246;2022-09-09T09:35:53;799.60;;;744.35;;
19448;SDS011;9863;49.404;8.246;2022-09-09T09:38:23;845.40;;;784.38;;
19448;SDS011;9863;49.404;8.246;2022-09-09T09:41:13;829.05;;;770.30;;
19448;SDS011;9863;49.404;8.246;2022-09-09T09:43:42;832.13;;;772.78;;
19448;SDS011;9863;49.404;8.246;2022-09-09T09:46:23;813.33;;;756.15;;
19448;SDS011;9863;49.404;8.246;2022-09-09T09:49:04;817.97;;;760.47;;
19448;SDS011;9863;49.404;8.246;2022-09-09T09:51:37;813.90;;;757.25;;
19448;SDS011;9863;49.404;8.246;2022-09-09T09:56:41;818.00;;;761.83;;
19448;SDS011;9863;49.404;8.246;2022-09-09T10:02:21;824.13;;;767.67;;
19448;SDS011;9863;49.404;8.246;2022-09-09T10:05:05;839.70;;;780.33;;
19448;SDS011;9863;49.404;8.246;2022-09-09T10:14:22;846.72;;;788.80;;
19448;SDS011;9863;49.404;8.246;2022-09-09T10:17:11;861.15;;;802.70;;
19448;SDS011;9863;49.404;8.246;2022-09-09T10:22:39;894.10;;;832.80;;
19448;SDS011;9863;49.404;8.246;2022-09-09T10:31:55;903.05;;;841.15;;
19448;SDS011;9863;49.404;8.246;2022-09-09T10:40:38;931.47;;;869.60;;
19448;SDS011;9863;49.404;8.246;2022-09-09T10:49:02;953.05;;;891.28;;
19448;SDS011;9863;49.404;8.246;2022-09-09T10:57:42;966.22;;;903.80;;
19448;SDS011;9863;49.404;8.246;2022-09-09T11:00:22;961.35;;;900.05;;
19448;SDS011;9863;49.404;8.246;2022-09-09T11:03:15;972.20;;;909.38;;
19448;SDS011;9863;49.404;8.246;2022-09-09T11:05:49;979.10;;;915.55;;
19448;SDS011;9863;49.404;8.246;2022-09-09T11:08:33;978.40;;;915.40;;
19448;SDS011;9863;49.404;8.246;2022-09-09T11:11:17;984.60;;;921.13;;
19448;SDS011;9863;49.404;8.246;2022-09-09T11:13:59;984.92;;;921.63;;
19448;SDS011;9863;49.404;8.246;2022-09-09T11:16:49;979.75;;;917.17;;
19448;SDS011;9863;49.404;8.246;2022-09-09T11:19:28;978.08;;;915.85;;
19448;SDS011;9863;49.404;8.246;2022-09-09T11:22:08;980.38;;;917.17;;
19448;SDS011;9863;49.404;8.246;2022-09-09T11:33:50;975.13;;;912.63;;
19448;SDS011;9863;49.404;8.246;2022-09-09T11:37:07;977.55;;;914.65;;
19448;SDS011;9863;49.404;8.246;2022-09-09T11:42:47;985.80;;;922.80;;
19448;SDS011;9863;49.404;8.246;2022-09-09T11:45:25;993.45;;;929.58;;
19448;SDS011;9863;49.404;8.246;2022-09-09T11:47:57;990.70;;;927.75;;
19448;SDS011;9863;49.404;8.246;2022-09-09T11:50:31;986.88;;;924.30;;
19448;SDS011;9863;49.404;8.246;2022-09-09T11:56:03;984.92;;;922.72;;
19448;SDS011;9863;49.404;8.246;2022-09-09T11:58:41;989.08;;;926.08;;
19448;SDS011;9863;49.404;8.246;2022-09-09T12:01:27;994.47;;;930.72;;
19448;SDS011;9863;49.404;8.246;2022-09-09T12:17:44;977.50;;;915.15;;
19448;SDS011;9863;49.404;8.246;2022-09-09T12:26:01;968.67;;;905.83;;
19448;SDS011;9863;49.404;8.246;2022-09-09T12:31:34;959.33;;;897.47;;
19448;SDS011;9863;49.404;8.246;2022-09-09T12:34:33;954.53;;;892.90;;
19448;SDS011;9863;49.404;8.246;2022-09-09T12:40:03;945.90;;;884.70;;
19448;SDS011;9863;49.404;8.246;2022-09-09T12:42:51;944.75;;;882.30;;
19448;SDS011;9863;49.404;8.246;2022-09-09T12:45:23;934.50;;;873.72;;
19448;SDS011;9863;49.404;8.246;2022-09-09T12:47:57;935.90;;;874.50;;
19448;SDS011;9863;49.404;8.246;2022-09-09T12:50:31;917.92;;;859.05;;
19448;SDS011;9863;49.404;8.246;2022-09-09T12:56:02;904.70;;;845.20;;
19448;SDS011;9863;49.404;8.246;2022-09-09T12:58:49;894.85;;;836.53;;
19448;SDS011;9863;49.404;8.246;2022-09-09T13:01:26;905.75;;;846.50;;
19448;SDS011;9863;49.404;8.246;2022-09-09T13:03:57;901.00;;;840.65;;
19448;SDS011;9863;49.404;8.246;2022-09-09T13:06:26;901.10;;;842.38;;
19448;SDS011;9863;49.404;8.246;2022-09-09T13:08:58;894.00;;;834.72;;
19448;SDS011;9863;49.404;8.246;2022-09-09T13:11:34;895.78;;;837.72;;
19448;SDS011;9863;49.404;8.246;2022-09-09T13:14:17;893.92;;;834.95;;
19448;SDS011;9863;49.404;8.246;2022-09-09T13:16:57;904.47;;;843.88;;
19448;SDS011;9863;49.404;8.246;2022-09-09T13:19:35;895.83;;;837.25;;
19448;SDS011;9863;49.404;8.246;2022-09-09T13:22:18;906.45;;;846.30;;
19448;SDS011;9863;49.404;8.246;2022-09-09T13:24:58;905.40;;;845.38;;
19448;SDS011;9863;49.404;8.246;2022-09-09T13:27:41;915.58;;;854.65;;
19448;SDS011;9863;49.404;8.246;2022-09-09T13:30:21;910.90;;;851.40;;
19448;SDS011;9863;49.404;8.246;2022-09-09T13:33:01;922.05;;;860.90;;
19448;SDS011;9863;49.404;8.246;2022-09-09T13:36:00;937.50;;;873.78;;
19448;SDS011;9863;49.404;8.246;2022-09-09T13:41:33;930.40;;;869.30;;
19448;SDS011;9863;49.404;8.246;2022-09-09T13:44:16;923.65;;;863.75;;
19448;SDS011;9863;49.404;8.246;2022-09-09T13:47:00;934.72;;;872.92;;
19448;SDS011;9863;49.404;8.246;2022-09-09T13:49:36;942.63;;;879.88;;
19448;SDS011;9863;49.404;8.246;2022-09-09T13:54:41;956.78;;;893.53;;
19448;SDS011;9863;49.404;8.246;2022-09-09T13:57:16;949.30;;;887.75;;
19448;SDS011;9863;49.404;8.246;2022-09-09T13:59:52;950.47;;;889.28;;
19448;SDS011;9863;49.404;8.246;2022-09-09T14:02:37;961.38;;;898.58;;
19448;SDS011;9863;49.404;8.246;2022-09-09T14:05:06;968.22;;;905.58;;
19448;SDS011;9863;49.404;8.246;2022-09-09T14:07:34;971.72;;;908.45;;
19448;SDS011;9863;49.404;8.246;2022-09-09T14:10:02;971.00;;;908.85;;
19448;SDS011;9863;49.404;8.246;2022-09-09T14:12:30;976.60;;;914.38;;
19448;SDS011;9863;49.404;8.246;2022-09-09T14:14:58;996.00;;;931.65;;
19448;SDS011;9863;49.404;8.246;2022-09-09T14:17:26;1007.33;;;941.25;;
19448;SDS011;9863;49.404;8.246;2022-09-09T14:19:57;993.45;;;930.05;;
19448;SDS011;9863;49.404;8.246;2022-09-09T14:22:25;987.90;;;924.63;;
19448;SDS011;9863;49.404;8.246;2022-09-09T14:27:43;1002.72;;;937.72;;
19448;SDS011;9863;49.404;8.246;2022-09-09T14:30:12;1025.63;;;957.00;;
19448;SDS011;9863;49.404;8.246;2022-09-09T14:32:40;999.97;;;936.13;;
19448;SDS011;9863;49.404;8.246;2022-09-09T14:35:08;1008.13;;;943.17;;
19448;SDS011;9863;49.404;8.246;2022-09-09T14:37:36;1000.60;;;934.78;;
19448;SDS011;9863;49.404;8.246;2022-09-09T14:40:06;997.28;;;933.22;;
19448;SDS011;9863;49.404;8.246;2022-09-09T14:42:34;995.47;;;932.15;;
19448;SDS011;9863;49.404;8.246;2022-09-09T14:45:02;1006.85;;;941.22;;
19448;SDS011;9863;49.404;8.246;2022-09-09T14:47:30;979.00;;;917.63;;
19448;SDS011;9863;49.404;8.246;2022-09-09T14:49:58;977.75;;;915.30;;
19448;SDS011;9863;49.404;8.246;2022-09-09T14:52:27;970.60;;;909.50;;
19448;SDS011;9863;49.404;8.246;2022-09-09T14:54:57;959.88;;;898.38;;
19448;SDS011;9863;49.404;8.246;2022-09-09T14:57:25;937.17;;;876.63;;
19448;SDS011;9863;49.404;8.246;2022-09-09T14:59:52;919.13;;;859.35;;
19448;SDS011;9863;49.404;8.246;2022-09-09T15:02:20;911.45;;;851.63;;
19448;SDS011;9863;49.404;8.246;2022-09-09T15:04:48;893.05;;;834.22;;
19448;SDS011;9863;49.404;8.246;2022-09-09T15:07:20;878.03;;;819.70;;
19448;SDS011;9863;49.404;8.246;2022-09-09T15:09:49;864.20;;;806.50;;
19448;SDS011;9863;49.404;8.246;2022-09-09T15:12:17;852.15;;;795.60;;
19448;SDS011;9863;49.404;8.246;2022-09-09T15:14:45;852.60;;;795.45;;
19448;SDS011;9863;49.404;8.246;2022-09-09T15:17:14;852.08;;;794.47;;
19448;SDS011;9863;49.404;8.246;2022-09-09T15:19:41;832.78;;;777.35;;
19448;SDS011;9863;49.404;8.246;2022-09-09T15:22:09;839.08;;;782.10;;
19448;SDS011;9863;49.404;8.246;2022-09-09T15:24:37;832.15;;;775.20;;
19448;SDS011;9863;49.404;8.246;2022-09-09T15:27:05;829.90;;;773.65;;
19448;SDS011;9863;49.404;8.246;2022-09-09T15:29:33;822.90;;;766.63;;
19448;SDS011;9863;49.404;8.246;2022-09-09T15:32:01;821.30;;;764.78;;
19448;SDS011;9863;49.404;8.246;2022-09-09T15:34:29;816.53;;;760.72;;
19448;SDS011;9863;49.404;8.246;2022-09-09T15:36:56;823.63;;;767.17;;
19448;SDS011;9863;49.404;8.246;2022-09-09T15:39:27;824.38;;;768.22;;
19448;SDS011;9863;49.404;8.246;2022-09-09T15:41:55;832.17;;;774.85;;
19448;SDS011;9863;49.404;8.246;2022-09-09T15:44:23;832.90;;;775.53;;
19448;SDS011;9863;49.404;8.246;2022-09-09T15:46:52;839.65;;;782.33;;
19448;SDS011;9863;49.404;8.246;2022-09-09T15:49:24;839.72;;;782.83;;
19448;SDS011;9863;49.404;8.246;2022-09-09T15:51:54;847.53;;;790.35;;
19448;SDS011;9863;49.404;8.246;2022-09-09T15:54:33;844.40;;;788.47;;
19448;SDS011;9863;49.404;8.246;2022-09-09T15:57:07;856.80;;;799.22;;
19448;SDS011;9863;49.404;8.246;2022-09-09T15:59:38;865.65;;;808.15;;
19448;SDS011;9863;49.404;8.246;2022-09-09T16:02:08;870.55;;;812.13;;
19448;SDS011;9863;49.404;8.246;2022-09-09T16:04:37;875.88;;;816.95;;
19448;SDS011;9863;49.404;8.246;2022-09-09T16:07:05;877.05;;;818.22;;
19448;SDS011;9863;49.404;8.246;2022-09-09T16:09:33;881.40;;;822.45;;
19448;SDS011;9863;49.404;8.246;2022-09-09T16:12:02;881.97;;;823.22;;
19448;SDS011;9863;49.404;8.246;2022-09-09T16:14:36;875.47;;;818.58;;
19448;SDS011;9863;49.404;8.246;2022-09-09T16:17:05;879.42;;;821.00;;
19448;SDS011;9863;49.404;8.246;2022-09-09T16:19:33;875.65;;;817.80;;
19448;SDS011;9863;49.404;8.246;2022-09-09T16:22:02;880.22;;;822.05;;
19448;SDS011;9863;49.404;8.246;2022-09-09T16:24:31;872.95;;;815.05;;
19448;SDS011;9863;49.404;8.246;2022-09-09T16:26:59;878.08;;;820.40;;
19448;SDS011;9863;49.404;8.246;2022-09-09T16:29:27;883.20;;;824.65;;
19448;SDS011;9863;49.404;8.246;2022-09-09T16:31:54;878.22;;;820.10;;
19448;SDS011;9863;49.404;8.246;2022-09-09T16:34:30;870.08;;;812.17;;
19448;SDS011;9863;49.404;8.246;2022-09-09T16:37:00;874.17;;;816.40;;
19448;SDS011;9863;49.404;8.246;2022-09-09T16:39:29;873.83;;;815.30;;
19448;SDS011;9863;49.404;8.246;2022-09-09T16:41:57;875.13;;;816.95;;
19448;SDS011;9863;49.404;8.246;2022-09-09T16:44:24;883.03;;;823.83;;
19448;SDS011;9863;49.404;8.246;2022-09-09T16:46:53;877.78;;;819.60;;
19448;SDS011;9863;49.404;8.246;2022-09-09T16:49:26;867.35;;;809.80;;
19448;SDS011;9863;49.404;8.246;2022-09-09T16:51:58;866.70;;;809.47;;
19448;SDS011;9863;49.404;8.246;2022-09-09T16:54:26;869.72;;;811.95;;
19448;SDS011;9863;49.404;8.246;2022-09-09T16:56:56;862.58;;;805.20;;
19448;SDS011;9863;49.404;8.246;2022-09-09T16:59:24;852.03;;;794.97;;
19448;SDS011;9863;49.404;8.246;2022-09-09T17:01:53;860.15;;;802.05;;
19448;SDS011;9863;49.404;8.246;2022-09-09T17:04:22;844.75;;;787.40;;
19448;SDS011;9863;49.404;8.246;2022-09-09T17:06:55;844.20;;;786.95;;
19448;SDS011;9863;49.404;8.246;2022-09-09T17:09:27;830.83;;;776.17;;
19448;SDS011;9863;49.404;8.246;2022-09-09T17:11:56;825.30;;;769.97;;
19448;SDS011;9863;49.404;8.246;2022-09-09T17:14:25;840.42;;;783.88;;
19448;SDS011;9863;49.404;8.246;2022-09-09T17:16:53;846.88;;;789.45;;
19448;SDS011;9863;49.404;8.246;2022-09-09T17:19:21;836.55;;;779.40;;
19448;SDS011;9863;49.404;8.246;2022-09-09T17:21:49;836.08;;;780.38;;
19448;SDS011;9863;49.404;8.246;2022-09-09T17:24:37;835.58;;;778.22;;
19448;SDS011;9863;49.404;8.246;2022-09-09T17:27:05;833.08;;;776.08;;
19448;SDS011;9863;49.404;8.246;2022-09-09T17:29:34;835.38;;;778.20;;
19448;SDS011;9863;49.404;8.246;2022-09-09T17:32:03;825.28;;;768.90;;
19448;SDS011;9863;49.404;8.246;2022-09-09T17:34:33;828.80;;;772.25;;
19448;SDS011;9863;49.404;8.246;2022-09-09T17:37:02;826.60;;;769.95;;
19448;SDS011;9863;49.404;8.246;2022-09-09T17:39:31;807.13;;;751.88;;
19448;SDS011;9863;49.404;8.246;2022-09-09T17:41:59;825.67;;;767.55;;
19448;SDS011;9863;49.404;8.246;2022-09-09T17:44:27;801.10;;;745.15;;